createdAt,value
2017-03-28T00:00:26.222Z,1018.83
2017-03-28T00:01:36.459Z,1018.83
2017-03-28T00:02:46.396Z,1018.86
2017-03-28T00:03:56.019Z,1018.82
2017-03-28T00:05:05.649Z,1018.83
2017-03-28T00:06:15.577Z,1018.83
2017-03-28T00:07:25.518Z,1018.87
2017-03-28T00:08:35.766Z,1018.87
2017-03-28T00:09:46.007Z,1018.89
2017-03-28T00:10:55.940Z,1018.9
2017-03-28T00:12:05.553Z,1018.89
2017-03-28T00:13:15.493Z,1018.87
2017-03-28T00:14:25.110Z,1018.89
2017-03-28T00:15:34.723Z,1018.89
2017-03-28T00:16:44.957Z,1018.84
2017-03-28T00:17:55.202Z,1018.84
2017-03-28T00:19:05.136Z,1018.85
2017-03-28T00:20:15.069Z,1018.83
2017-03-28T00:21:25.313Z,1018.83
2017-03-28T00:22:35.246Z,1018.81
2017-03-28T00:23:45.497Z,1018.78
2017-03-28T00:24:55.751Z,1018.8
2017-03-28T00:26:05.681Z,1018.82
2017-03-28T00:27:15.924Z,1018.8
2017-03-28T00:28:25.539Z,1018.79
2017-03-28T00:29:35.473Z,1018.81
2017-03-28T00:30:45.404Z,1018.75
2017-03-28T00:31:55.640Z,1018.77
2017-03-28T00:33:05.887Z,1018.74
2017-03-28T00:34:16.137Z,1018.71
2017-03-28T00:35:26.388Z,1018.68
2017-03-28T00:36:36.632Z,1018.73
2017-03-28T00:37:46.557Z,1018.7
2017-03-28T00:38:56.808Z,1018.66
2017-03-28T00:40:07.058Z,1018.63
2017-03-28T00:41:17.303Z,1018.61
2017-03-28T00:42:27.544Z,1018.66
2017-03-28T00:43:37.796Z,1018.62
2017-03-28T00:44:47.730Z,1018.6
2017-03-28T00:45:57.669Z,1018.57
2017-03-28T00:47:07.910Z,1018.58
2017-03-28T00:48:18.156Z,1018.58
2017-03-28T00:49:27.777Z,1018.56
2017-03-28T00:50:37.710Z,1018.57
2017-03-28T00:51:47.948Z,1018.56
2017-03-28T00:52:58.197Z,1018.54
2017-03-28T00:54:08.126Z,1018.55
2017-03-28T00:55:18.055Z,1018.56
2017-03-28T00:56:27.975Z,1018.54
2017-03-28T00:57:37.898Z,1018.53
2017-03-28T00:58:47.828Z,1018.53
2017-03-28T00:59:58.076Z,1018.49
2017-03-28T01:01:08.006Z,1018.52
2017-03-28T01:02:18.241Z,1018.48
2017-03-28T01:03:28.168Z,1018.47
2017-03-28T01:04:38.103Z,1018.46
2017-03-28T01:05:48.035Z,1018.47
2017-03-28T01:06:58.275Z,1018.45
2017-03-28T01:08:08.203Z,1018.47
2017-03-28T01:09:18.446Z,1018.5
2017-03-28T01:10:27.755Z,1018.47
2017-03-28T01:11:38.004Z,1018.48
2017-03-28T01:12:48.250Z,1018.49
2017-03-28T01:13:58.185Z,1018.43
2017-03-28T01:15:08.440Z,1018.42
2017-03-28T01:16:18.684Z,1018.41
2017-03-28T01:17:28.928Z,1018.41
2017-03-28T01:18:39.173Z,1018.43
2017-03-28T01:19:48.789Z,1018.41
2017-03-28T01:20:58.730Z,1018.36
2017-03-28T01:22:08.667Z,1018.36
2017-03-28T01:23:18.600Z,1018.3
2017-03-28T01:24:28.226Z,1018.3
2017-03-28T01:25:37.227Z,1018.29
2017-03-28T01:26:47.474Z,1018.28
2017-03-28T01:27:57.722Z,1018.25
2017-03-28T01:29:07.654Z,1018.25
2017-03-28T01:30:17.582Z,1018.25
2017-03-28T01:31:27.828Z,1018.2
2017-03-28T01:32:37.772Z,1018.25
2017-03-28T01:33:47.712Z,1018.22
2017-03-28T01:34:57.335Z,1018.21
2017-03-28T01:36:07.574Z,1018.22
2017-03-28T01:37:17.507Z,1018.2
2017-03-28T01:38:27.751Z,1018.16
2017-03-28T01:39:37.685Z,1018.19
2017-03-28T01:40:47.614Z,1018.17
2017-03-28T01:41:57.548Z,1018.19
2017-03-28T01:43:07.169Z,1018.13
2017-03-28T01:44:17.415Z,1018.1
2017-03-28T01:45:27.350Z,1018.16
2017-03-28T01:46:37.605Z,1018.09
2017-03-28T01:47:47.539Z,1018.08
2017-03-28T01:48:57.480Z,1018.09
2017-03-28T01:50:06.779Z,1018.09
2017-03-28T01:51:16.710Z,1018.02
2017-03-28T01:52:26.954Z,1018.04
2017-03-28T01:53:36.879Z,1018.02
2017-03-28T01:54:46.806Z,1018.04
2017-03-28T01:55:57.051Z,1018.05
2017-03-28T01:57:07.294Z,1018
2017-03-28T01:58:17.220Z,1018.02
2017-03-28T01:59:27.463Z,1018.05
2017-03-28T02:00:37.086Z,1018.04
2017-03-28T02:01:47.329Z,1018.01
2017-03-28T02:02:57.570Z,1018.02
2017-03-28T02:04:07.822Z,1018.01
2017-03-28T02:05:18.072Z,1018.03
2017-03-28T02:06:28.317Z,1017.99
2017-03-28T02:07:38.562Z,1017.99
2017-03-28T02:08:48.811Z,1018.01
2017-03-28T02:09:58.784Z,1017.98
2017-03-28T02:11:08.718Z,1017.98
2017-03-28T02:12:18.961Z,1017.98
2017-03-28T02:13:28.890Z,1018.01
2017-03-28T02:14:38.817Z,1018.01
2017-03-28T02:15:48.757Z,1018.03
2017-03-28T02:16:58.378Z,1018.03
2017-03-28T02:18:08.314Z,1018.04
2017-03-28T02:19:18.571Z,1017.99
2017-03-28T02:20:28.503Z,1017.99
2017-03-28T02:21:38.439Z,1017.99
2017-03-28T02:22:48.687Z,1017.99
2017-03-28T02:23:58.619Z,1018
2017-03-28T02:25:08.558Z,1018.02
2017-03-28T02:26:18.174Z,1018.03
2017-03-28T02:27:28.109Z,1018.04
2017-03-28T02:28:38.353Z,1018.04
2017-03-28T02:29:48.301Z,1018.08
2017-03-28T02:30:58.556Z,1018.04
2017-03-28T02:32:08.806Z,1018.05
2017-03-28T02:33:19.065Z,1018.07
2017-03-28T02:34:29.305Z,1018.04
2017-03-28T02:35:39.237Z,1018.06
2017-03-28T02:36:49.166Z,1018.07
2017-03-28T02:37:59.092Z,1018.09
2017-03-28T02:39:09.340Z,1018.07
2017-03-28T02:40:19.263Z,1018.08
2017-03-28T02:41:29.195Z,1018.05
2017-03-28T02:42:38.810Z,1018.05
2017-03-28T02:43:48.759Z,1018.02
2017-03-28T02:44:58.697Z,1017.97
2017-03-28T02:46:08.970Z,1017.95
2017-03-28T02:47:19.215Z,1017.96
2017-03-28T02:48:29.470Z,1017.96
2017-03-28T02:49:39.441Z,1017.93
2017-03-28T02:50:49.366Z,1017.91
2017-03-28T02:51:58.978Z,1017.92
2017-03-28T02:53:09.226Z,1017.87
2017-03-28T02:54:19.159Z,1017.89
2017-03-28T02:55:29.406Z,1017.93
2017-03-28T02:56:39.324Z,1017.93
2017-03-28T02:57:49.572Z,1017.94
2017-03-28T02:58:59.813Z,1017.96
2017-03-28T03:00:09.762Z,1017.98
2017-03-28T03:01:19.702Z,1017.9
2017-03-28T03:02:29.642Z,1017.92
2017-03-28T03:03:39.890Z,1017.91
2017-03-28T03:04:50.138Z,1017.89
2017-03-28T03:06:00.080Z,1017.92
2017-03-28T03:07:09.698Z,1017.91
2017-03-28T03:08:19.633Z,1017.9
2017-03-28T03:09:29.885Z,1017.91
2017-03-28T03:10:40.127Z,1017.89
2017-03-28T03:11:50.371Z,1017.88
2017-03-28T03:13:00.301Z,1017.88
2017-03-28T03:14:10.549Z,1017.83
2017-03-28T03:15:20.492Z,1017.8
2017-03-28T03:16:30.747Z,1017.83
2017-03-28T03:17:41.006Z,1017.83
2017-03-28T03:18:51.263Z,1017.81
2017-03-28T03:20:01.197Z,1017.85
2017-03-28T03:21:11.436Z,1017.85
2017-03-28T03:22:21.676Z,1017.81
2017-03-28T03:23:31.601Z,1017.86
2017-03-28T03:24:41.530Z,1017.8
2017-03-28T03:25:51.464Z,1017.83
2017-03-28T03:27:01.706Z,1017.78
2017-03-28T03:28:11.647Z,1017.76
2017-03-28T03:29:21.892Z,1017.81
2017-03-28T03:30:31.519Z,1017.8
2017-03-28T03:31:41.758Z,1017.81
2017-03-28T03:32:51.993Z,1017.83
2017-03-28T03:34:02.242Z,1017.82
2017-03-28T03:35:11.863Z,1017.82
2017-03-28T03:36:21.785Z,1017.82
2017-03-28T03:37:32.029Z,1017.87
2017-03-28T03:38:42.281Z,1017.83
2017-03-28T03:39:52.529Z,1017.85
2017-03-28T03:41:02.457Z,1017.85
2017-03-28T03:42:12.073Z,1017.84
2017-03-28T03:43:22.319Z,1017.84
2017-03-28T03:44:32.251Z,1017.81
2017-03-28T03:45:42.181Z,1017.8
2017-03-28T03:46:52.110Z,1017.8
2017-03-28T03:48:02.047Z,1017.77
2017-03-28T03:49:12.303Z,1017.75
2017-03-28T03:50:22.554Z,1017.76
2017-03-28T03:51:32.797Z,1017.8
2017-03-28T03:52:43.038Z,1017.78
2017-03-28T03:53:52.975Z,1017.79
2017-03-28T03:55:03.213Z,1017.81
2017-03-28T03:56:12.835Z,1017.8
2017-03-28T03:57:22.766Z,1017.79
2017-03-28T03:58:32.696Z,1017.84
2017-03-28T03:59:42.949Z,1017.88
2017-03-28T04:00:52.880Z,1017.85
2017-03-28T04:02:03.120Z,1017.87
2017-03-28T04:03:12.749Z,1017.86
2017-03-28T04:04:22.062Z,1017.82
2017-03-28T04:05:32.025Z,1017.82
2017-03-28T04:06:42.260Z,1017.86
2017-03-28T04:07:52.517Z,1017.85
2017-03-28T04:09:02.768Z,1017.82
2017-03-28T04:10:12.708Z,1017.86
2017-03-28T04:11:22.954Z,1017.9
2017-03-28T04:12:32.897Z,1017.83
2017-03-28T04:13:43.141Z,1017.86
2017-03-28T04:14:53.100Z,1017.85
2017-03-28T04:16:03.047Z,1017.83
2017-03-28T04:17:13.291Z,1017.83
2017-03-28T04:18:23.229Z,1017.88
2017-03-28T04:19:33.470Z,1017.88
2017-03-28T04:20:43.401Z,1017.9
2017-03-28T04:21:53.010Z,1017.9
2017-03-28T04:23:03.250Z,1017.9
2017-03-28T04:24:13.183Z,1017.94
2017-03-28T04:25:22.808Z,1017.91
2017-03-28T04:26:32.735Z,1017.91
2017-03-28T04:27:42.978Z,1017.95
2017-03-28T04:28:52.920Z,1017.93
2017-03-28T04:30:03.166Z,1017.97
2017-03-28T04:31:13.098Z,1017.99
2017-03-28T04:32:23.347Z,1018.02
2017-03-28T04:33:33.304Z,1018.02
2017-03-28T04:34:43.554Z,1018.01
2017-03-28T04:35:53.798Z,1018.04
2017-03-28T04:37:04.078Z,1018.04
2017-03-28T04:38:14.339Z,1018.01
2017-03-28T04:39:23.966Z,1018.03
2017-03-28T04:40:33.585Z,1018
2017-03-28T04:41:43.534Z,1018.03
2017-03-28T04:42:53.150Z,1018.02
2017-03-28T04:44:02.785Z,1018.04
2017-03-28T04:45:12.410Z,1018.02
2017-03-28T04:46:22.031Z,1018.01
2017-03-28T04:47:31.963Z,1018.01
2017-03-28T04:48:42.225Z,1018
2017-03-28T04:49:52.164Z,1018.01
2017-03-28T04:51:01.790Z,1017.98
2017-03-28T04:52:12.040Z,1018.01
2017-03-28T04:53:21.975Z,1018.01
2017-03-28T04:54:31.931Z,1018
2017-03-28T04:55:41.866Z,1018.01
2017-03-28T04:56:52.107Z,1018.03
2017-03-28T04:58:02.351Z,1017.99
2017-03-28T04:59:12.279Z,1018
2017-03-28T05:00:22.522Z,1017.99
2017-03-28T05:01:32.447Z,1018.03
2017-03-28T05:02:42.686Z,1018.04
2017-03-28T05:03:52.930Z,1018.03
2017-03-28T05:05:03.180Z,1018.05
2017-03-28T05:06:12.483Z,1018.02
2017-03-28T05:07:22.410Z,1018.04
2017-03-28T05:08:32.343Z,1018.03
2017-03-28T05:09:42.291Z,1018
2017-03-28T05:10:52.539Z,1018
2017-03-28T05:12:02.778Z,1018.02
2017-03-28T05:13:12.704Z,1018.02
2017-03-28T05:14:22.325Z,1018.02
2017-03-28T05:15:32.570Z,1018.05
2017-03-28T05:16:42.500Z,1018.01
2017-03-28T05:17:52.740Z,1018.01
2017-03-28T05:19:02.993Z,1018
2017-03-28T05:20:12.929Z,1018.03
2017-03-28T05:21:22.854Z,1018.04
2017-03-28T05:22:33.100Z,1018.05
2017-03-28T05:23:43.034Z,1018.03
2017-03-28T05:24:52.970Z,1018.05
2017-03-28T05:26:03.218Z,1018.07
2017-03-28T05:27:13.155Z,1018.05
2017-03-28T05:28:23.105Z,1018.01
2017-03-28T05:29:33.353Z,1018.06
2017-03-28T05:30:43.599Z,1018.08
2017-03-28T05:31:53.526Z,1018.07
2017-03-28T05:33:03.772Z,1018.1
2017-03-28T05:34:13.082Z,1018.08
2017-03-28T05:35:23.327Z,1018.11
2017-03-28T05:36:33.588Z,1018.1
2017-03-28T05:37:43.831Z,1018.12
2017-03-28T05:38:54.078Z,1018.1
2017-03-28T05:40:04.009Z,1018.08
2017-03-28T05:41:13.933Z,1018.11
2017-03-28T05:42:23.865Z,1018.1
2017-03-28T05:43:33.803Z,1018.09
2017-03-28T05:44:43.748Z,1018.1
2017-03-28T05:45:53.996Z,1018.13
2017-03-28T05:47:04.234Z,1018.09
2017-03-28T05:48:14.163Z,1018.07
2017-03-28T05:49:24.101Z,1018.06
2017-03-28T05:50:34.349Z,1018.03
2017-03-28T05:51:44.590Z,1018.07
2017-03-28T05:52:53.891Z,1018.07
2017-03-28T05:54:03.820Z,1018.08
2017-03-28T05:55:13.449Z,1018.07
2017-03-28T05:56:23.382Z,1018.07
2017-03-28T05:57:33.632Z,1018.11
2017-03-28T05:58:43.566Z,1018.09
2017-03-28T05:59:53.814Z,1018.1
2017-03-28T06:01:03.754Z,1018.12
2017-03-28T06:02:13.370Z,1018.13
2017-03-28T06:03:23.614Z,1018.11
2017-03-28T06:04:33.870Z,1018.09
2017-03-28T06:05:44.111Z,1018.13
2017-03-28T06:06:54.355Z,1018.14
2017-03-28T06:08:04.602Z,1018.16
2017-03-28T06:09:14.222Z,1018.11
2017-03-28T06:10:24.159Z,1018.17
2017-03-28T06:11:34.097Z,1018.19
2017-03-28T06:12:43.716Z,1018.19
2017-03-28T06:13:53.657Z,1018.22
2017-03-28T06:15:03.596Z,1018.22
2017-03-28T06:16:13.209Z,1018.19
2017-03-28T06:17:23.459Z,1018.19
2017-03-28T06:18:33.706Z,1018.25
2017-03-28T06:19:43.955Z,1018.21
2017-03-28T06:20:53.882Z,1018.21
2017-03-28T06:22:04.129Z,1018.24
2017-03-28T06:23:14.377Z,1018.22
2017-03-28T06:24:24.628Z,1018.23
2017-03-28T06:25:34.869Z,1018.25
2017-03-28T06:26:45.114Z,1018.28
2017-03-28T06:27:55.365Z,1018.27
2017-03-28T06:29:05.295Z,1018.3
2017-03-28T06:30:14.932Z,1018.32
2017-03-28T06:31:24.880Z,1018.26
2017-03-28T06:32:34.828Z,1018.33
2017-03-28T06:33:45.071Z,1018.33
2017-03-28T06:34:55.317Z,1018.36
2017-03-28T06:36:05.241Z,1018.34
2017-03-28T06:37:15.179Z,1018.39
2017-03-28T06:38:24.806Z,1018.37
2017-03-28T06:39:34.429Z,1018.38
2017-03-28T06:40:44.049Z,1018.42
2017-03-28T06:41:54.295Z,1018.39
2017-03-28T06:43:04.537Z,1018.41
2017-03-28T06:44:14.778Z,1018.41
2017-03-28T06:45:25.025Z,1018.4
2017-03-28T06:46:34.952Z,1018.4
2017-03-28T06:47:44.883Z,1018.43
2017-03-28T06:48:55.139Z,1018.46
2017-03-28T06:50:05.076Z,1018.47
2017-03-28T06:51:15.336Z,1018.45
2017-03-28T06:52:24.949Z,1018.44
2017-03-28T06:53:34.876Z,1018.4
2017-03-28T06:54:45.114Z,1018.45
2017-03-28T06:55:55.049Z,1018.42
2017-03-28T06:57:05.287Z,1018.46
2017-03-28T06:58:15.527Z,1018.45
2017-03-28T06:59:25.772Z,1018.41
2017-03-28T07:00:36.014Z,1018.42
2017-03-28T07:01:46.261Z,1018.43
2017-03-28T07:02:55.568Z,1018.38
2017-03-28T07:04:05.192Z,1018.41
2017-03-28T07:05:15.130Z,1018.41
2017-03-28T07:06:25.055Z,1018.39
2017-03-28T07:07:35.296Z,1018.39
2017-03-28T07:08:45.544Z,1018.37
2017-03-28T07:09:55.796Z,1018.38
2017-03-28T07:11:06.038Z,1018.34
2017-03-28T07:12:15.649Z,1018.33
2017-03-28T07:13:25.897Z,1018.3
2017-03-28T07:14:36.139Z,1018.31
2017-03-28T07:15:46.090Z,1018.31
2017-03-28T07:16:55.708Z,1018.33
2017-03-28T07:18:05.325Z,1018.33
2017-03-28T07:19:15.265Z,1018.34
2017-03-28T07:20:24.574Z,1018.34
2017-03-28T07:21:34.496Z,1018.34
2017-03-28T07:22:44.737Z,1018.35
2017-03-28T07:23:54.985Z,1018.36
2017-03-28T07:25:04.611Z,1018.35
2017-03-28T07:26:13.919Z,1018.37
2017-03-28T07:27:23.848Z,1018.41
2017-03-28T07:28:33.776Z,1018.36
2017-03-28T07:29:44.024Z,1018.42
2017-03-28T07:30:53.960Z,1018.38
2017-03-28T07:32:04.203Z,1018.38
2017-03-28T07:33:13.817Z,1018.4
2017-03-28T07:34:23.746Z,1018.34
2017-03-28T07:35:33.994Z,1018.37
2017-03-28T07:36:43.925Z,1018.34
2017-03-28T07:37:54.170Z,1018.33
2017-03-28T07:39:04.102Z,1018.33
2017-03-28T07:40:13.733Z,1018.31
2017-03-28T07:41:23.969Z,1018.33
2017-03-28T07:42:34.220Z,1018.33
2017-03-28T07:43:43.838Z,1018.33
2017-03-28T07:44:53.455Z,1018.31
2017-03-28T07:46:03.071Z,1018.31
2017-03-28T07:47:12.998Z,1018.34
2017-03-28T07:48:23.241Z,1018.34
2017-03-28T07:49:33.173Z,1018.34
2017-03-28T07:50:43.095Z,1018.35
2017-03-28T07:51:53.335Z,1018.3
2017-03-28T07:53:03.299Z,1018.3
2017-03-28T07:54:13.536Z,1018.3
2017-03-28T07:55:23.785Z,1018.33
2017-03-28T07:56:34.029Z,1018.36
2017-03-28T07:57:43.959Z,1018.35
2017-03-28T07:58:54.196Z,1018.36
2017-03-28T08:00:04.438Z,1018.36
2017-03-28T08:01:14.680Z,1018.36
2017-03-28T08:02:24.292Z,1018.35
2017-03-28T08:03:34.229Z,1018.32
2017-03-28T08:04:44.473Z,1018.35
2017-03-28T08:05:54.397Z,1018.32
2017-03-28T08:07:04.324Z,1018.35
2017-03-28T08:08:14.564Z,1018.34
2017-03-28T08:09:24.487Z,1018.33
2017-03-28T08:10:34.424Z,1018.33
2017-03-28T08:11:44.352Z,1018.33
2017-03-28T08:12:54.290Z,1018.33
2017-03-28T08:14:04.223Z,1018.36
2017-03-28T08:15:14.156Z,1018.33
2017-03-28T08:16:23.465Z,1018.32
2017-03-28T08:17:33.398Z,1018.33
2017-03-28T08:18:43.340Z,1018.38
2017-03-28T08:19:53.591Z,1018.33
2017-03-28T08:21:03.210Z,1018.35
2017-03-28T08:22:13.452Z,1018.31
2017-03-28T08:23:23.376Z,1018.29
2017-03-28T08:24:33.614Z,1018.32
2017-03-28T08:25:43.543Z,1018.31
2017-03-28T08:26:53.470Z,1018.32
2017-03-28T08:28:03.706Z,1018.28
2017-03-28T08:29:13.951Z,1018.29
2017-03-28T08:30:23.906Z,1018.27
2017-03-28T08:31:34.151Z,1018.28
2017-03-28T08:32:44.397Z,1018.28
2017-03-28T08:33:54.647Z,1018.31
2017-03-28T08:35:04.894Z,1018.31
2017-03-28T08:36:14.505Z,1018.32
2017-03-28T08:37:24.439Z,1018.32
2017-03-28T08:38:34.367Z,1018.29
2017-03-28T08:39:44.608Z,1018.3
2017-03-28T08:40:54.845Z,1018.27
2017-03-28T08:42:04.781Z,1018.29
2017-03-28T08:43:14.421Z,1018.29
2017-03-28T08:44:24.041Z,1018.25
2017-03-28T08:45:34.288Z,1018.24
2017-03-28T08:46:44.213Z,1018.26
2017-03-28T08:47:54.450Z,1018.23
2017-03-28T08:49:04.715Z,1018.25
2017-03-28T08:50:14.657Z,1018.2
2017-03-28T08:51:24.905Z,1018.23
2017-03-28T08:52:35.159Z,1018.24
2017-03-28T08:53:45.094Z,1018.22
2017-03-28T08:54:55.025Z,1018.19
2017-03-28T08:56:04.643Z,1018.23
2017-03-28T08:57:14.897Z,1018.25
2017-03-28T08:58:25.143Z,1018.25
2017-03-28T08:59:35.387Z,1018.26
2017-03-28T09:00:45.328Z,1018.25
2017-03-28T09:01:55.252Z,1018.26
2017-03-28T09:03:04.865Z,1018.29
2017-03-28T09:04:14.485Z,1018.28
2017-03-28T09:05:24.411Z,1018.28
2017-03-28T09:06:34.654Z,1018.27
2017-03-28T09:07:44.593Z,1018.26
2017-03-28T09:08:54.523Z,1018.29
2017-03-28T09:10:04.771Z,1018.29
2017-03-28T09:11:14.406Z,1018.28
2017-03-28T09:12:24.339Z,1018.26
2017-03-28T09:13:34.592Z,1018.25
2017-03-28T09:14:44.218Z,1018.25
2017-03-28T09:15:53.835Z,1018.25
2017-03-28T09:17:03.763Z,1018.24
2017-03-28T09:18:14.007Z,1018.25
2017-03-28T09:19:23.951Z,1018.28
2017-03-28T09:20:33.566Z,1018.29
2017-03-28T09:21:43.494Z,1018.27
2017-03-28T09:22:53.732Z,1018.27
2017-03-28T09:24:03.670Z,1018.24
2017-03-28T09:25:13.599Z,1018.25
2017-03-28T09:26:23.219Z,1018.23
2017-03-28T09:27:32.836Z,1018.22
2017-03-28T09:28:42.465Z,1018.21
2017-03-28T09:29:52.707Z,1018.22
2017-03-28T09:31:02.965Z,1018.22
2017-03-28T09:32:13.216Z,1018.25
2017-03-28T09:33:23.144Z,1018.28
2017-03-28T09:34:33.384Z,1018.27
2017-03-28T09:35:43.630Z,1018.25
2017-03-28T09:36:53.877Z,1018.3
2017-03-28T09:38:04.123Z,1018.25
2017-03-28T09:39:14.065Z,1018.24
2017-03-28T09:40:24.006Z,1018.27
2017-03-28T09:41:33.625Z,1018.25
2017-03-28T09:42:43.867Z,1018.26
2017-03-28T09:43:53.486Z,1018.28
2017-03-28T09:45:03.416Z,1018.27
2017-03-28T09:46:12.725Z,1018.26
2017-03-28T09:47:22.668Z,1018.28
2017-03-28T09:48:32.594Z,1018.2
2017-03-28T09:49:42.528Z,1018.2
2017-03-28T09:50:52.471Z,1018.21
2017-03-28T09:52:02.408Z,1018.22
2017-03-28T09:53:12.652Z,1018.19
2017-03-28T09:54:22.278Z,1018.13
2017-03-28T09:55:32.530Z,1018.19
2017-03-28T09:56:42.770Z,1018.22
2017-03-28T09:57:52.386Z,1018.17
2017-03-28T09:59:02.634Z,1018.15
2017-03-28T10:00:12.875Z,1018.15
2017-03-28T10:01:23.117Z,1018.13
2017-03-28T10:02:32.763Z,1018.1
2017-03-28T10:03:43.007Z,1018.11
2017-03-28T10:04:53.255Z,1018.12
2017-03-28T10:06:02.871Z,1018.13
2017-03-28T10:07:13.121Z,1018.07
2017-03-28T10:08:22.736Z,1018.05
2017-03-28T10:09:32.667Z,1018.09
2017-03-28T10:10:42.607Z,1018.02
2017-03-28T10:11:52.536Z,1018.02
2017-03-28T10:13:02.464Z,1018
2017-03-28T10:14:12.388Z,1017.99
2017-03-28T10:15:22.006Z,1017.97
2017-03-28T10:16:31.632Z,1018.03
2017-03-28T10:17:41.875Z,1018.01
2017-03-28T10:18:51.500Z,1017.99
2017-03-28T10:20:01.744Z,1017.96
2017-03-28T10:21:11.678Z,1017.95
2017-03-28T10:22:21.348Z,1017.92
2017-03-28T10:23:31.596Z,1017.92
2017-03-28T10:24:41.518Z,1017.95
2017-03-28T10:25:51.758Z,1017.89
2017-03-28T10:27:01.694Z,1017.88
2017-03-28T10:28:11.945Z,1017.88
2017-03-28T10:29:21.885Z,1017.87
2017-03-28T10:30:31.506Z,1017.88
2017-03-28T10:31:41.432Z,1017.89
2017-03-28T10:32:51.362Z,1017.9
2017-03-28T10:34:01.614Z,1017.87
2017-03-28T10:35:11.857Z,1017.87
2017-03-28T10:36:21.784Z,1017.81
2017-03-28T10:37:31.711Z,1017.84
2017-03-28T10:38:41.955Z,1017.77
2017-03-28T10:39:52.208Z,1017.77
2017-03-28T10:41:02.464Z,1017.8
2017-03-28T10:42:12.103Z,1017.81
2017-03-28T10:43:22.036Z,1017.81
2017-03-28T10:44:31.966Z,1017.78
2017-03-28T10:45:41.895Z,1017.78
2017-03-28T10:46:52.141Z,1017.77
2017-03-28T10:48:02.071Z,1017.76
2017-03-28T10:49:11.710Z,1017.73
2017-03-28T10:50:21.641Z,1017.75
2017-03-28T10:51:31.882Z,1017.71
2017-03-28T10:52:41.812Z,1017.72
2017-03-28T10:53:52.062Z,1017.74
2017-03-28T10:55:02.304Z,1017.71
2017-03-28T10:56:12.236Z,1017.71
2017-03-28T10:57:22.478Z,1017.71
2017-03-28T10:58:32.419Z,1017.68
2017-03-28T10:59:42.672Z,1017.67
2017-03-28T11:00:52.286Z,1017.62
2017-03-28T11:02:02.526Z,1017.61
2017-03-28T11:03:12.818Z,1017.6
2017-03-28T11:04:22.130Z,1017.59
2017-03-28T11:05:32.386Z,1017.56
2017-03-28T11:06:42.630Z,1017.54
2017-03-28T11:07:52.243Z,1017.58
2017-03-28T11:09:02.491Z,1017.55
2017-03-28T11:10:12.751Z,1017.56
2017-03-28T11:11:22.995Z,1017.57
2017-03-28T11:12:32.936Z,1017.56
2017-03-28T11:13:43.187Z,1017.49
2017-03-28T11:14:53.155Z,1017.49
2017-03-28T11:16:03.393Z,1017.45
2017-03-28T11:17:13.007Z,1017.48
2017-03-28T11:18:22.934Z,1017.44
2017-03-28T11:19:32.861Z,1017.45
2017-03-28T11:20:42.819Z,1017.39
2017-03-28T11:21:53.061Z,1017.39
2017-03-28T11:23:03.311Z,1017.38
2017-03-28T11:24:12.936Z,1017.37
2017-03-28T11:25:22.556Z,1017.39
2017-03-28T11:26:32.491Z,1017.36
2017-03-28T11:27:42.774Z,1017.31
2017-03-28T11:28:53.018Z,1017.29
2017-03-28T11:30:02.953Z,1017.25
2017-03-28T11:31:13.193Z,1017.29
2017-03-28T11:32:23.124Z,1017.25
2017-03-28T11:33:33.371Z,1017.21
2017-03-28T11:34:43.304Z,1017.24
2017-03-28T11:35:53.238Z,1017.2
2017-03-28T11:37:03.482Z,1017.17
2017-03-28T11:38:13.717Z,1017.23
2017-03-28T11:39:23.687Z,1017.23
2017-03-28T11:40:33.938Z,1017.18
2017-03-28T11:41:43.554Z,1017.19
2017-03-28T11:42:53.826Z,1017.17
2017-03-28T11:44:03.761Z,1017.16
2017-03-28T11:45:13.383Z,1017.11
2017-03-28T11:46:23.625Z,1017.07
2017-03-28T11:47:33.241Z,1017.06
2017-03-28T11:48:43.489Z,1017.07
2017-03-28T11:49:53.737Z,1017.06
2017-03-28T11:51:03.351Z,1017.05
2017-03-28T11:52:13.590Z,1017.04
2017-03-28T11:53:23.857Z,1017
2017-03-28T11:54:33.485Z,1016.97
2017-03-28T11:55:43.417Z,1017.01
2017-03-28T11:56:53.035Z,1017
2017-03-28T11:58:03.277Z,1016.89
2017-03-28T11:59:13.530Z,1016.95
2017-03-28T12:00:23.458Z,1017.03
2017-03-28T12:01:33.705Z,1017.01
2017-03-28T12:02:43.665Z,1016.99
2017-03-28T12:03:53.913Z,1016.97
2017-03-28T12:05:04.163Z,1016.93
2017-03-28T12:06:14.406Z,1016.93
2017-03-28T12:07:24.644Z,1016.91
2017-03-28T12:08:34.577Z,1016.89
2017-03-28T12:09:44.192Z,1016.83
2017-03-28T12:10:54.428Z,1016.82
2017-03-28T12:12:04.043Z,1016.79
2017-03-28T12:13:13.658Z,1016.8
2017-03-28T12:14:23.604Z,1016.74
2017-03-28T12:15:33.844Z,1016.73
2017-03-28T12:16:43.473Z,1016.72
2017-03-28T12:17:53.722Z,1016.72
2017-03-28T12:19:03.961Z,1016.67
2017-03-28T12:20:14.205Z,1016.71
2017-03-28T12:21:24.458Z,1016.68
2017-03-28T12:22:34.722Z,1016.69
2017-03-28T12:23:44.336Z,1016.63
2017-03-28T12:24:54.271Z,1016.67
2017-03-28T12:26:04.200Z,1016.65
2017-03-28T12:27:14.438Z,1016.62
2017-03-28T12:28:24.685Z,1016.6
2017-03-28T12:29:34.617Z,1016.68
2017-03-28T12:30:44.545Z,1016.64
2017-03-28T12:31:54.787Z,1016.55
2017-03-28T12:33:04.715Z,1016.58
2017-03-28T12:34:14.964Z,1016.51
2017-03-28T12:35:24.578Z,1016.51
2017-03-28T12:36:34.507Z,1016.49
2017-03-28T12:37:44.436Z,1016.53
2017-03-28T12:38:54.365Z,1016.53
2017-03-28T12:40:04.604Z,1016.55
2017-03-28T12:41:13.929Z,1016.48
2017-03-28T12:42:23.569Z,1016.46
2017-03-28T12:43:33.834Z,1016.46
2017-03-28T12:44:44.129Z,1016.43
2017-03-28T12:45:54.371Z,1016.41
2017-03-28T12:47:04.623Z,1016.38
2017-03-28T12:48:14.578Z,1016.36
2017-03-28T12:49:24.504Z,1016.39
2017-03-28T12:50:34.125Z,1016.42
2017-03-28T12:51:44.082Z,1016.41
2017-03-28T12:52:54.325Z,1016.37
2017-03-28T12:54:04.259Z,1016.4
2017-03-28T12:55:13.880Z,1016.4
2017-03-28T12:56:24.122Z,1016.39
2017-03-28T12:57:34.369Z,1016.39
2017-03-28T12:58:44.297Z,1016.33
2017-03-28T12:59:54.545Z,1016.41
2017-03-28T13:01:04.469Z,1016.37
2017-03-28T13:02:14.714Z,1016.33
2017-03-28T13:03:24.961Z,1016.3
2017-03-28T13:04:34.576Z,1016.29
2017-03-28T13:05:44.506Z,1016.29
2017-03-28T13:06:54.752Z,1016.24
2017-03-28T13:08:04.682Z,1016.25
2017-03-28T13:09:14.611Z,1016.2
2017-03-28T13:10:24.541Z,1016.2
2017-03-28T13:11:34.471Z,1016.19
2017-03-28T13:12:43.776Z,1016.17
2017-03-28T13:13:53.404Z,1016.14
2017-03-28T13:15:03.017Z,1016.09
2017-03-28T13:16:12.956Z,1016.08
2017-03-28T13:17:23.203Z,1016.11
2017-03-28T13:18:33.145Z,1016.06
2017-03-28T13:19:43.074Z,1016.08
2017-03-28T13:20:53.316Z,1016.1
2017-03-28T13:22:03.568Z,1016.05
2017-03-28T13:23:14.115Z,1016.01
2017-03-28T13:24:24.361Z,1016.01
2017-03-28T13:25:34.317Z,1015.97
2017-03-28T13:26:44.556Z,1016.02
2017-03-28T13:27:54.175Z,1015.93
2017-03-28T13:29:04.418Z,1016.04
2017-03-28T13:30:14.032Z,1016.01
2017-03-28T13:31:24.283Z,1015.98
2017-03-28T13:32:34.221Z,1015.98
2017-03-28T13:33:44.465Z,1016
2017-03-28T13:34:54.930Z,1015.98
2017-03-28T13:36:04.552Z,1015.93
2017-03-28T13:37:14.510Z,1015.95
2017-03-28T13:38:24.435Z,1015.92
2017-03-28T13:39:34.365Z,1015.85
2017-03-28T13:40:44.616Z,1015.87
2017-03-28T13:41:54.542Z,1015.86
2017-03-28T13:43:04.470Z,1015.84
2017-03-28T13:44:14.400Z,1015.85
2017-03-28T13:45:24.325Z,1015.82
2017-03-28T13:46:34.266Z,1015.8
2017-03-28T13:47:44.198Z,1015.82
2017-03-28T13:48:54.125Z,1015.82
2017-03-28T13:50:04.361Z,1015.78
2017-03-28T13:51:14.293Z,1015.76
2017-03-28T13:52:24.537Z,1015.71
2017-03-28T13:53:34.778Z,1015.72
2017-03-28T13:54:44.705Z,1015.7
2017-03-28T13:55:54.949Z,1015.68
2017-03-28T13:57:05.191Z,1015.7
2017-03-28T13:58:15.430Z,1015.62
2017-03-28T13:59:25.354Z,1015.61
2017-03-28T14:00:34.964Z,1015.6
2017-03-28T14:01:44.583Z,1015.58
2017-03-28T14:02:54.507Z,1015.53
2017-03-28T14:04:04.431Z,1015.54
2017-03-28T14:05:14.363Z,1015.6
2017-03-28T14:06:24.292Z,1015.51
2017-03-28T14:07:34.227Z,1015.47
2017-03-28T14:08:44.161Z,1015.48
2017-03-28T14:09:54.401Z,1015.44